Time;durP1;ratioP1;P1;durP2;ratioP2;P2;SDS_P1;SDS_P2;PMS_P1;PMS_P2;Temp;Humidity;BMP_temperature;BMP_pressure;BME280_temperature;BME280_humidity;BME280_pressure;Samples;Min_cycle;Max_cycle;Signal;HPM_P1;HPM_P2
2021/12/01 00:00:35;;;;;;;3.80;3.50;;;;;;;10.74;100.00;100098.44;5253989;28;20078;-72
2021/12/01 00:03:06;;;;;;;3.63;3.33;;;;;;;10.69;100.00;100088.41;5255559;28;20548;-72
2021/12/01 00:05:38;;;;;;;3.78;3.38;;;;;;;10.65;100.00;100078.38;5255621;28;20049;-73
2021/12/01 00:08:10;;;;;;;3.50;3.20;;;;;;;10.69;100.00;100064.00;5254196;28;20037;-73
2021/12/01 00:10:42;;;;;;;3.90;3.33;;;;;;;10.67;100.00;100060.69;5237481;28;20013;-73
2021/12/01 00:13:16;;;;;;;3.57;3.27;;;;;;;10.75;100.00;100055.53;5255557;28;20076;-72
2021/12/01 00:15:50;;;;;;;3.78;3.10;;;;;;;10.76;100.00;100053.72;5255572;28;20099;-73
2021/12/01 00:18:21;;;;;;;4.60;3.45;;;;;;;10.76;100.00;100051.09;5254095;28;20028;-73
2021/12/01 00:20:52;;;;;;;3.55;3.03;;;;;;;10.69;100.00;100038.63;5254969;28;20028;-73
2021/12/01 00:23:24;;;;;;;3.03;2.72;;;;;;;10.64;100.00;100027.75;5255098;28;20714;-72
2021/12/01 00:25:56;;;;;;;3.13;2.80;;;;;;;10.67;100.00;100013.56;5255589;28;20035;-72
2021/12/01 00:28:28;;;;;;;3.30;2.95;;;;;;;10.65;100.00;100015.50;5254948;28;20028;-72
2021/12/01 00:31:00;;;;;;;3.10;2.80;;;;;;;10.69;100.00;100003.75;5254892;28;20020;-72
2021/12/01 00:33:31;;;;;;;3.63;2.70;;;;;;;10.65;100.00;99977.03;5254993;28;20029;-72
2021/12/01 00:36:03;;;;;;;3.25;2.78;;;;;;;10.66;100.00;99983.09;5253447;28;20040;-72
2021/12/01 00:38:35;;;;;;;3.00;2.63;;;;;;;10.68;100.00;99968.88;5255149;28;20036;-72
2021/12/01 00:41:07;;;;;;;3.00;2.47;;;;;;;10.68;100.00;99968.88;5255180;28;20406;-72
2021/12/01 00:43:39;;;;;;;2.85;2.60;;;;;;;10.63;100.00;99954.56;5253426;28;20313;-72
2021/12/01 00:46:19;;;;;;;3.00;2.70;;;;;;;10.57;100.00;99955.19;5254833;28;20112;-73
2021/12/01 00:48:51;;;;;;;3.67;2.85;;;;;;;10.61;100.00;99951.31;5255276;28;20033;-72
2021/12/01 00:51:22;;;;;;;4.00;3.22;;;;;;;10.64;100.00;99940.50;5255007;28;20027;-72
2021/12/01 00:53:53;;;;;;;4.32;3.00;;;;;;;10.65;100.00;99942.97;5252967;28;20039;-72
2021/12/01 00:56:25;;;;;;;3.50;3.20;;;;;;;10.56;100.00;99948.31;5254602;28;20040;-72
2021/12/01 00:58:56;;;;;;;4.32;3.03;;;;;;;10.48;100.00;99933.34;5254224;28;20112;-72
2021/12/01 01:01:27;;;;;;;3.92;2.90;;;;;;;10.55;100.00;99957.13;5253104;28;20540;-72
2021/12/01 01:03:59;;;;;;;3.85;3.10;;;;;;;10.53;100.00;99927.66;5254381;28;20037;-73
2021/12/01 01:06:31;;;;;;;3.70;3.08;;;;;;;10.56;100.00;99922.94;5254932;28;20029;-72
2021/12/01 01:09:05;;;;;;;4.05;3.50;;;;;;;10.55;100.00;99910.81;5253091;28;20490;-73
2021/12/01 01:17:36;;;;;;;4.85;3.80;;;;;;;10.48;100.00;99905.34;5254358;28;20036;-72
2021/12/01 01:20:12;;;;;;;4.40;4.00;;;;;;;10.57;100.00;99908.03;5253963;28;20478;-72
2021/12/01 01:22:44;;;;;;;4.80;4.07;;;;;;;10.45;100.00;99894.38;5253894;28;20024;-72
2021/12/01 01:25:15;;;;;;;5.78;4.50;;;;;;;10.52;100.00;99891.97;5253010;28;20502;-72
2021/12/01 01:27:46;;;;;;;4.72;4.32;;;;;;;10.52;100.00;99891.97;5254021;28;20498;-72
2021/12/01 01:30:18;;;;;;;5.28;4.82;;;;;;;10.45;100.00;99874.25;5254456;28;20049;-72
2021/12/01 01:32:50;;;;;;;5.53;5.00;;;;;;;10.42;100.00;99876.38;5254675;28;20024;-72
2021/12/01 01:35:22;;;;;;;5.88;4.88;;;;;;;10.46;100.00;99873.28;5252991;28;20112;-72
2021/12/01 01:37:53;;;;;;;5.20;4.80;;;;;;;10.39;100.00;99877.47;5253492;28;20512;-72
2021/12/01 01:40:24;;;;;;;5.90;5.30;;;;;;;10.37;100.00;99863.72;5253679;28;20029;-72
2021/12/01 01:42:56;;;;;;;5.72;5.22;;;;;;;10.30;100.00;99860.06;5234839;28;20051;-73
2021/12/01 01:45:27;;;;;;;5.03;4.63;;;;;;;10.31;100.00;99864.34;5254015;28;20024;-72
2021/12/01 01:48:05;;;;;;;5.38;4.60;;;;;;;10.26;100.00;99850.03;5254278;28;20025;-73
2021/12/01 01:50:40;;;;;;;5.40;4.90;;;;;;;10.25;100.00;99846.59;5253193;28;20009;-72
2021/12/01 01:53:15;;;;;;;5.13;4.63;;;;;;;10.28;100.00;99845.50;5252805;28;20032;-72
2021/12/01 01:55:50;;;;;;;5.18;4.78;;;;;;;10.25;100.00;99833.53;5253675;28;20075;-72
2021/12/01 01:58:22;;;;;;;4.50;4.10;;;;;;;10.26;100.00;99837.78;5253618;28;20063;-72
2021/12/01 02:03:40;;;;;;;4.90;4.47;;;;;;;10.29;100.00;99815.72;5253468;28;20038;-72
2021/12/01 02:06:14;;;;;;;4.43;4.03;;;;;;;10.30;100.00;99822.59;5254031;28;20063;-72
2021/12/01 02:08:45;;;;;;;4.72;4.18;;;;;;;10.25;100.00;99807.34;5252579;28;20021;-72
2021/12/01 02:11:18;;;;;;;4.80;3.65;;;;;;;10.20;100.00;99804.34;5253617;28;20391;-73
2021/12/01 02:13:50;;;;;;;4.97;3.50;;;;;;;10.20;100.00;99796.50;5253170;28;20061;-72
2021/12/01 02:16:22;;;;;;;3.83;3.53;;;;;;;10.10;100.00;99785.28;5253850;28;20375;-73
2021/12/01 02:18:54;;;;;;;7.25;3.55;;;;;;;10.16;100.00;99785.50;5251983;28;20024;-73
2021/12/01 02:21:30;;;;;;;3.50;3.20;;;;;;;10.08;100.00;99774.16;5252818;28;20036;-73
2021/12/01 02:24:05;;;;;;;3.92;2.92;;;;;;;10.13;100.00;99782.38;5253113;28;20389;-72
2021/12/01 02:26:40;;;;;;;3.33;2.80;;;;;;;10.04;100.00;99759.72;5252240;28;20645;-72
2021/12/01 02:29:14;;;;;;;3.10;2.70;;;;;;;10.14;100.00;99752.59;5253144;28;20675;-72
2021/12/01 02:31:46;;;;;;;3.15;2.65;;;;;;;10.07;100.00;99754.19;5253123;28;20029;-72
2021/12/01 02:34:20;;;;;;;2.58;2.15;;;;;;;10.05;100.00;99743.88;5252380;28;20033;-72
2021/12/01 02:36:57;;;;;;;2.58;2.28;;;;;;;10.02;100.00;99735.50;5252756;28;20642;-72
2021/12/01 02:39:28;;;;;;;3.05;2.60;;;;;;;9.98;100.00;99729.78;5253196;28;20040;-72
2021/12/01 02:42:05;;;;;;;3.17;2.17;;;;;;;9.95;100.00;99722.22;5253537;28;20474;-72
2021/12/01 02:44:37;;;;;;;2.42;2.20;;;;;;;9.98;100.00;99714.88;5252274;28;20053;-72
2021/12/01 02:47:08;;;;;;;2.53;2.03;;;;;;;9.94;100.00;99700.47;5252739;28;20032;-72
2021/12/01 02:49:40;;;;;;;2.60;2.22;;;;;;;9.92;100.00;99693.75;5253047;28;20021;-72
2021/12/01 02:52:12;;;;;;;2.40;2.10;;;;;;;9.96;100.00;99687.22;5251989;28;20029;-72
2021/12/01 02:54:43;;;;;;;3.75;2.38;;;;;;;9.86;100.00;99686.53;5251665;28;20055;-72
2021/12/01 02:57:15;;;;;;;3.10;2.60;;;;;;;9.89;100.00;99699.31;5235038;28;20052;-72
2021/12/01 02:59:47;;;;;;;3.47;2.60;;;;;;;9.85;100.00;99693.56;5253023;28;20021;-72
2021/12/01 03:02:18;;;;;;;2.90;2.50;;;;;;;9.87;100.00;99669.84;5251202;28;20112;-73
2021/12/01 03:04:49;;;;;;;3.83;2.63;;;;;;;9.93;100.00;99664.00;5254832;28;20025;-73
2021/12/01 03:07:21;;;;;;;3.33;2.75;;;;;;;9.78;100.00;99671.59;5256404;28;20040;-73
2021/12/01 03:09:52;;;;;;;3.70;2.92;;;;;;;9.84;100.00;99657.06;5256459;28;20056;-72
2021/12/01 03:12:29;;;;;;;3.67;3.28;;;;;;;9.72;100.00;99654.72;5256127;28;20051;-72
2021/12/01 03:15:00;;;;;;;3.72;3.33;;;;;;;9.74;100.00;99644.13;5256286;28;20021;-72
2021/12/01 03:17:32;;;;;;;3.47;2.90;;;;;;;9.81;100.00;99636.44;5256575;28;20459;-72
2021/12/01 03:20:09;;;;;;;3.83;3.15;;;;;;;9.75;100.00;99651.78;5256711;28;20498;-72
2021/12/01 03:22:42;;;;;;;5.50;3.38;;;;;;;9.80;100.00;99650.50;5255824;28;20040;-73
2021/12/01 03:25:14;;;;;;;3.67;3.30;;;;;;;9.74;100.00;99637.09;5256769;28;20059;-73
2021/12/01 03:27:46;;;;;;;3.47;2.92;;;;;;;9.78;100.00;99623.72;5256473;28;20645;-72
2021/12/01 03:30:17;;;;;;;3.72;3.17;;;;;;;9.79;100.00;99607.03;5255502;28;20028;-72
2021/12/01 03:32:50;;;;;;;4.18;3.45;;;;;;;9.79;100.00;99612.25;5255952;28;20029;-73
2021/12/01 03:35:21;;;;;;;3.33;3.03;;;;;;;9.83;100.00;99603.94;5256242;28;20090;-72
2021/12/01 03:37:52;;;;;;;4.28;3.58;;;;;;;9.85;100.00;99582.84;5255743;28;20024;-73
2021/12/01 03:40:24;;;;;;;4.03;3.20;;;;;;;9.76;100.00;99584.59;5254914;28;20028;-72
2021/12/01 03:42:55;;;;;;;3.50;3.13;;;;;;;9.66;100.00;99576.91;5255014;28;20605;-73
2021/12/01 03:45:27;;;;;;;3.55;3.25;;;;;;;9.66;100.00;99579.50;5256368;28;20029;-72
2021/12/01 03:47:58;;;;;;;3.75;3.30;;;;;;;9.63;100.00;99576.38;5254909;28;20052;-72
2021/12/01 03:50:30;;;;;;;4.03;3.38;;;;;;;9.65;100.00;99567.38;5254989;28;20017;-72
2021/12/01 03:53:01;;;;;;;5.05;3.80;;;;;;;9.70;100.00;99553.88;5256438;28;20075;-72
2021/12/01 03:55:34;;;;;;;4.55;3.22;;;;;;;9.62;100.00;99532.88;5255942;28;20401;-72
2021/12/01 03:58:05;;;;;;;4.43;3.05;;;;;;;9.67;100.00;99536.69;5254706;28;20033;-72
2021/12/01 04:00:38;;;;;;;5.50;3.92;;;;;;;9.62;100.00;99514.56;5255100;28;20028;-72
2021/12/01 04:03:09;;;;;;;4.35;3.83;;;;;;;9.68;100.00;99503.50;5255952;28;20470;-73
2021/12/01 04:05:41;;;;;;;4.30;3.85;;;;;;;9.62;100.00;99501.50;5255360;28;20035;-73
2021/12/01 04:08:12;;;;;;;4.35;3.65;;;;;;;9.62;100.00;99498.88;5255355;28;20025;-72
2021/12/01 04:10:43;;;;;;;6.82;4.10;;;;;;;9.57;100.00;99501.97;5255546;28;20035;-72
2021/12/01 04:13:15;;;;;;;5.20;4.25;;;;;;;9.67;100.00;99491.41;5255958;28;20386;-71
2021/12/01 04:15:46;;;;;;;4.53;3.83;;;;;;;9.50;100.00;99474.81;5249106;28;20055;-72
2021/12/01 04:18:17;;;;;;;4.50;3.78;;;;;;;9.56;100.00;99489.06;5254348;28;20462;-72
2021/12/01 04:20:49;;;;;;;4.32;3.90;;;;;;;9.47;100.00;99477.75;5255000;28;20056;-73
2021/12/01 04:23:20;;;;;;;3.90;3.30;;;;;;;9.49;100.00;99471.38;5255462;28;20409;-73
2021/12/01 04:25:52;;;;;;;3.92;3.20;;;;;;;9.51;100.00;99460.78;5254357;28;20039;-72
2021/12/01 04:28:23;;;;;;;3.78;3.33;;;;;;;9.48;100.00;99464.53;5255110;28;20104;-72
2021/12/01 04:30:55;;;;;;;4.68;3.08;;;;;;;9.52;100.00;99453.75;5255292;28;20020;-72
2021/12/01 04:33:26;;;;;;;3.15;2.58;;;;;;;9.40;100.00;99448.81;5254238;28;20033;-72
2021/12/01 04:35:57;;;;;;;3.40;2.60;;;;;;;9.43;100.00;99426.75;5254265;28;20032;-73
2021/12/01 04:38:28;;;;;;;3.70;2.72;;;;;;;9.44;100.00;99416.16;5253967;28;20025;-74
2021/12/01 04:41:00;;;;;;;4.50;2.72;;;;;;;9.36;100.00;99407.47;5254016;28;20040;-72
2021/12/01 04:43:31;;;;;;;2.97;2.30;;;;;;;9.40;100.00;99409.59;5254039;28;20063;-72
2021/12/01 04:46:03;;;;;;;4.22;2.55;;;;;;;9.45;100.00;99398.66;5254574;28;20021;-72
2021/12/01 04:48:34;;;;;;;4.72;2.67;;;;;;;9.35;100.00;99400.59;5255118;28;20537;-72
2021/12/01 04:51:06;;;;;;;3.97;2.40;;;;;;;9.37;100.00;99393.41;5253681;28;20123;-72
2021/12/01 04:53:38;;;;;;;2.97;2.33;;;;;;;9.44;100.00;99382.16;5254639;28;20136;-72
2021/12/01 04:56:09;;;;;;;4.15;2.33;;;;;;;9.38;100.00;99381.97;5253708;28;20037;-72
2021/12/01 04:58:41;;;;;;;4.50;2.60;;;;;;;9.36;100.00;99376.09;5254009;28;20035;-71
2021/12/01 05:01:12;;;;;;;3.35;2.53;;;;;;;9.31;100.00;99370.50;5252604;28;20440;-73
2021/12/01 05:03:43;;;;;;;3.88;2.70;;;;;;;9.27;100.00;99365.59;5253879;28;20020;-72
2021/12/01 05:06:16;;;;;;;5.25;2.15;;;;;;;9.32;100.00;99366.91;5253439;28;20445;-72
2021/12/01 05:08:47;;;;;;;4.20;2.38;;;;;;;9.26;100.00;99347.47;5253568;28;20037;-72
2021/12/01 05:11:19;;;;;;;3.95;2.25;;;;;;;9.15;100.00;99348.56;5254546;28;20382;-73
2021/12/01 05:13:50;;;;;;;2.92;1.98;;;;;;;9.19;100.00;99359.53;5253615;28;20021;-72
2021/12/01 05:16:22;;;;;;;2.50;2.00;;;;;;;9.21;100.00;99331.47;5252995;28;20111;-72
2021/12/01 05:18:53;;;;;;;4.18;2.28;;;;;;;9.13;100.00;99349.69;5254396;28;20037;-73
2021/12/01 05:21:24;;;;;;;3.80;1.85;;;;;;;9.09;100.00;99333.56;5254143;28;20032;-72
2021/12/01 05:23:56;;;;;;;2.60;1.88;;;;;;;9.12;100.00;99324.56;5251097;28;20024;-72
2021/12/01 05:26:27;;;;;;;2.63;1.55;;;;;;;9.12;100.00;99324.56;5250786;28;20860;-72
2021/12/01 05:28:59;;;;;;;2.90;1.58;;;;;;;8.99;100.00;99331.03;5253423;28;20299;-73
2021/12/01 05:31:31;;;;;;;3.10;1.70;;;;;;;9.10;100.00;99319.50;5252821;28;20052;-72
2021/12/01 05:34:02;;;;;;;3.10;1.50;;;;;;;9.12;100.00;99319.34;5252125;28;20060;-72
2021/12/01 05:36:34;;;;;;;2.50;1.60;;;;;;;9.07;100.00;99321.59;5253827;28;20025;-72
2021/12/01 05:39:05;;;;;;;3.58;1.58;;;;;;;9.01;100.00;99315.22;5252876;28;20093;-72
2021/12/01 05:41:37;;;;;;;4.05;1.50;;;;;;;9.04;100.00;99312.28;5253368;28;20075;-72
2021/12/01 05:44:08;;;;;;;2.25;1.58;;;;;;;9.06;100.00;99299.09;5251642;28;20616;-72
2021/12/01 05:46:39;;;;;;;1.67;1.10;;;;;;;8.97;100.00;99295.59;5254040;28;20052;-72
2021/12/01 05:49:11;;;;;;;2.60;1.10;;;;;;;9.02;100.00;99275.06;5254040;28;20033;-73
2021/12/01 05:51:43;;;;;;;1.88;1.20;;;;;;;9.02;100.00;99293.34;5253762;28;20486;-72
2021/12/01 05:54:14;;;;;;;2.03;1.47;;;;;;;8.98;100.00;99278.97;5252597;28;20375;-72
2021/12/01 05:56:45;;;;;;;3.15;1.30;;;;;;;9.01;100.00;99266.38;5252905;28;20279;-72
2021/12/01 05:59:17;;;;;;;2.42;1.20;;;;;;;8.99;100.00;99270.97;5254049;28;20245;-73
2021/12/01 06:01:48;;;;;;;1.88;1.40;;;;;;;8.94;100.00;99262.81;5253071;28;20028;-72
2021/12/01 06:04:20;;;;;;;2.35;1.02;;;;;;;9.00;100.00;99258.72;5253481;28;20029;-72
2021/12/01 06:06:51;;;;;;;1.35;0.80;;;;;;;9.01;100.00;99255.94;5253787;28;20229;-72
2021/12/01 06:09:23;;;;;;;1.95;1.20;;;;;;;8.90;100.00;99247.59;5253675;28;20027;-72
2021/12/01 06:11:55;;;;;;;2.00;1.10;;;;;;;8.97;100.00;99227.69;5252391;28;20566;-72
2021/12/01 06:14:27;;;;;;;1.73;1.08;;;;;;;9.04;100.00;99230.50;5252940;28;20533;-72
2021/12/01 06:16:59;;;;;;;2.72;1.42;;;;;;;9.01;100.00;99210.72;5251951;28;20284;-72
2021/12/01 06:19:30;;;;;;;1.90;1.00;;;;;;;9.04;100.00;99220.84;5252512;28;20043;-71
2021/12/01 06:22:02;;;;;;;2.17;1.23;;;;;;;8.96;100.00;99211.22;5253340;28;20021;-72
2021/12/01 06:24:34;;;;;;;4.28;1.45;;;;;;;9.04;100.00;99213.03;5252811;28;20390;-73
2021/12/01 06:27:06;;;;;;;1.70;1.00;;;;;;;9.06;100.00;99216.31;5253539;28;20638;-73
2021/12/01 06:29:37;;;;;;;2.67;1.15;;;;;;;9.05;100.00;99198.16;5253602;28;20051;-72
2021/12/01 06:32:09;;;;;;;2.08;1.13;;;;;;;8.99;100.00;99195.22;5251522;28;20029;-72
2021/12/01 06:34:41;;;;;;;1.73;1.30;;;;;;;9.07;100.00;99191.81;5253183;28;20021;-72
2021/12/01 06:37:15;;;;;;;1.63;0.93;;;;;;;9.01;100.00;99195.84;5253735;28;20481;-72
2021/12/01 06:39:46;;;;;;;2.58;1.20;;;;;;;8.97;100.00;99194.56;5255793;28;20032;-72
2021/12/01 06:42:21;;;;;;;2.05;1.52;;;;;;;9.00;100.00;99189.00;5256693;28;20021;-72
2021/12/01 06:44:52;;;;;;;1.58;1.10;;;;;;;9.05;100.00;99174.66;5256679;28;20114;-72
2021/12/01 06:47:23;;;;;;;1.58;1.13;;;;;;;8.99;100.00;99163.88;5257789;28;20028;-72
2021/12/01 06:49:55;;;;;;;3.25;1.20;;;;;;;9.11;100.00;99160.94;5254094;28;20021;-72
2021/12/01 06:52:29;;;;;;;1.90;1.08;;;;;;;9.09;100.00;99161.13;5256653;28;20071;-72
2021/12/01 06:55:02;;;;;;;3.92;1.60;;;;;;;9.04;100.00;99173.03;5254678;28;20029;-71
2021/12/01 06:57:34;;;;;;;2.35;1.40;;;;;;;9.13;100.00;99159.81;5257279;28;20032;-72
2021/12/01 07:00:10;;;;;;;2.80;1.55;;;;;;;9.18;100.00;99161.94;5257247;28;20021;-72
2021/12/01 07:02:42;;;;;;;2.13;1.58;;;;;;;9.14;100.00;99160.63;5256150;28;20462;-72
2021/12/01 07:05:13;;;;;;;1.83;1.33;;;;;;;9.16;100.00;99158.66;5256852;28;20244;-72
2021/12/01 07:07:44;;;;;;;2.85;1.65;;;;;;;9.13;100.00;99154.59;5256571;28;20057;-72
2021/12/01 07:10:16;;;;;;;2.05;1.52;;;;;;;9.18;100.00;99143.66;5238054;28;20395;-72
2021/12/01 07:12:48;;;;;;;2.15;1.58;;;;;;;9.14;100.00;99134.50;5254036;28;20025;-72
2021/12/01 07:15:19;;;;;;;2.20;1.50;;;;;;;9.22;100.00;99142.34;5236469;28;20033;-72
2021/12/01 07:17:50;;;;;;;3.28;1.55;;;;;;;9.21;100.00;99130.28;5251826;28;20368;-73
2021/12/01 07:20:22;;;;;;;3.17;2.00;;;;;;;9.18;100.00;99130.59;5254291;28;20142;-72
2021/12/01 07:22:53;;;;;;;2.67;1.85;;;;;;;9.17;100.00;99142.84;5255636;28;20119;-72
2021/12/01 07:25:25;;;;;;;2.47;2.10;;;;;;;9.27;100.00;99140.06;5254265;28;20178;-72
2021/12/01 07:27:56;;;;;;;2.95;2.10;;;;;;;9.33;100.00;99142.03;5254828;28;20029;-72
2021/12/01 07:30:28;;;;;;;3.40;2.08;;;;;;;9.33;100.00;99133.38;5237588;28;20116;-72
2021/12/01 07:32:59;;;;;;;3.55;2.28;;;;;;;9.31;100.00;99141.34;5255265;28;20025;-72
2021/12/01 07:35:30;;;;;;;2.90;2.40;;;;;;;9.31;100.00;99130.91;5255236;28;20549;-72
2021/12/01 07:38:01;;;;;;;2.67;2.47;;;;;;;9.39;100.00;99133.50;5238214;28;20377;-72
2021/12/01 07:40:33;;;;;;;3.20;2.53;;;;;;;9.33;100.00;99134.19;5255188;28;20032;-73
2021/12/01 07:43:04;;;;;;;3.47;2.33;;;;;;;9.44;100.00;99133.84;5249280;28;20519;-72
2021/12/01 07:45:36;;;;;;;2.45;2.25;;;;;;;9.42;100.00;99133.19;5232417;28;20429;-73
2021/12/01 07:48:07;;;;;;;2.50;2.08;;;;;;;9.46;100.00;99129.25;5232650;28;20053;-74
2021/12/01 07:50:39;;;;;;;2.92;2.40;;;;;;;9.43;100.00;99120.94;5232225;28;20025;-73
2021/12/01 07:53:10;;;;;;;3.25;2.30;;;;;;;9.42;100.00;99122.72;5230906;28;20029;-73
2021/12/01 07:55:42;;;;;;;2.88;2.55;;;;;;;9.47;100.00;99107.38;5233399;28;20490;-72
2021/12/01 07:58:13;;;;;;;3.10;2.45;;;;;;;9.38;100.00;99091.88;5233906;28;20104;-73
2021/12/01 08:00:44;;;;;;;5.68;2.80;;;;;;;9.45;100.00;99096.25;5229126;28;20394;-73
2021/12/01 08:03:16;;;;;;;3.33;2.42;;;;;;;9.50;100.00;99096.56;5233872;28;20025;-73
2021/12/01 08:05:47;;;;;;;4.18;2.08;;;;;;;9.49;100.00;99094.94;5227873;28;20025;-73
2021/12/01 08:08:18;;;;;;;2.42;2.22;;;;;;;9.52;100.00;99085.16;5229599;28;20057;-73
2021/12/01 08:10:49;;;;;;;3.67;2.58;;;;;;;9.51;100.00;99094.81;5227132;28;20071;-73
2021/12/01 08:13:21;;;;;;;3.80;2.50;;;;;;;9.50;100.00;99083.50;5231846;28;20022;-73
2021/12/01 08:15:52;;;;;;;3.17;2.22;;;;;;;9.52;100.00;99083.34;5232425;28;20112;-73
2021/12/01 08:18:23;;;;;;;4.10;2.72;;;;;;;9.56;100.00;99089.88;5232680;28;20116;-73
2021/12/01 08:20:55;;;;;;;4.78;3.35;;;;;;;9.58;100.00;99092.31;5215404;28;20052;-73
2021/12/01 08:23:27;;;;;;;4.40;3.00;;;;;;;9.64;100.00;99089.84;5233273;28;20108;-73
2021/12/01 08:25:58;;;;;;;3.30;3.00;;;;;;;9.59;100.00;99099.19;5233699;28;20033;-73
2021/12/01 08:28:29;;;;;;;3.55;2.92;;;;;;;9.64;100.00;99089.03;5232035;28;20021;-73
2021/12/01 08:31:01;;;;;;;4.50;2.97;;;;;;;9.60;100.00;99077.28;5232173;28;20076;-73
2021/12/01 08:33:32;;;;;;;3.58;2.85;;;;;;;9.66;100.00;99077.44;5233030;28;20416;-73
2021/12/01 08:36:04;;;;;;;3.95;2.97;;;;;;;9.68;100.00;99077.25;5233145;28;20037;-73
2021/12/01 08:38:36;;;;;;;3.40;2.60;;;;;;;9.68;100.00;99074.66;5232467;28;20112;-73
2021/12/01 08:41:08;;;;;;;3.38;2.67;;;;;;;9.71;100.00;99080.38;5232017;28;20021;-73
2021/12/01 08:43:39;;;;;;;2.50;2.13;;;;;;;9.75;100.00;99073.00;5235439;28;20138;-73
2021/12/01 08:46:10;;;;;;;2.80;2.50;;;;;;;9.82;100.00;99060.88;5239026;28;20068;-73
2021/12/01 08:48:42;;;;;;;2.70;2.30;;;;;;;9.80;100.00;99062.84;5236620;28;20076;-73
2021/12/01 08:51:14;;;;;;;2.95;2.47;;;;;;;9.86;100.00;99059.56;5239744;28;20028;-73
2021/12/01 08:53:45;;;;;;;3.10;2.40;;;;;;;9.91;100.00;99072.13;5238239;28;20022;-73
2021/12/01 08:56:16;;;;;;;2.85;2.10;;;;;;;9.93;100.00;99065.75;5241959;28;20029;-73
2021/12/01 08:58:48;;;;;;;3.42;2.25;;;;;;;9.97;100.00;99063.63;5235720;28;20156;-73
2021/12/01 09:01:20;;;;;;;2.22;1.85;;;;;;;10.03;100.00;99060.28;5235738;28;20098;-73
2021/12/01 09:03:51;;;;;;;2.45;2.00;;;;;;;10.07;100.00;99058.16;5234580;28;20061;-73
2021/12/01 09:06:22;;;;;;;2.13;1.90;;;;;;;9.93;100.00;99062.31;5235992;28;20032;-73
2021/12/01 09:08:54;;;;;;;2.30;1.70;;;;;;;9.97;100.00;99063.63;5238654;28;20090;-73
2021/12/01 09:11:25;;;;;;;3.22;1.75;;;;;;;9.92;100.00;99056.25;5234601;28;20156;-73
2021/12/01 09:13:57;;;;;;;2.58;1.45;;;;;;;9.89;100.00;99068.88;5238108;28;20021;-73
2021/12/01 09:16:28;;;;;;;2.17;1.40;;;;;;;9.86;100.00;99067.41;5235243;28;20064;-73
2021/12/01 09:19:00;;;;;;;1.95;1.50;;;;;;;9.91;100.00;99070.31;5238709;28;20017;-73
2021/12/01 09:21:32;;;;;;;2.13;1.33;;;;;;;9.79;100.00;99063.84;5239415;28;20085;-73
2021/12/01 09:24:04;;;;;;;2.33;1.25;;;;;;;9.91;100.00;99077.34;5236889;28;20037;-73
2021/12/01 09:26:36;;;;;;;3.72;1.52;;;;;;;9.85;100.00;99071.00;5231123;28;20025;-73
2021/12/01 09:29:07;;;;;;;3.63;1.30;;;;;;;9.78;100.00;99064.00;5234060;28;20072;-72
2021/12/01 09:31:38;;;;;;;1.98;1.40;;;;;;;9.82;100.00;99083.63;5238321;28;20124;-72
2021/12/01 09:34:10;;;;;;;2.78;1.60;;;;;;;9.80;100.00;99086.38;5237020;28;20071;-73
2021/12/01 09:36:41;;;;;;;4.70;1.70;;;;;;;9.70;100.00;99097.03;5238147;28;20017;-73
2021/12/01 09:39:12;;;;;;;2.92;1.60;;;;;;;9.72;100.00;99102.09;5236906;28;20375;-72
2021/12/01 09:41:44;;;;;;;2.83;1.23;;;;;;;9.63;100.00;99093.47;5237187;28;20039;-72
2021/12/01 09:44:15;;;;;;;3.15;1.33;;;;;;;9.70;100.00;99093.63;5236718;28;20048;-73
2021/12/01 09:46:46;;;;;;;3.50;1.60;;;;;;;9.68;100.00;99106.03;5240132;28;20274;-73
2021/12/01 09:49:18;;;;;;;4.97;1.65;;;;;;;9.63;100.00;99098.69;5235432;28;20029;-73
2021/12/01 09:51:51;;;;;;;5.53;1.80;;;;;;;9.65;100.00;99108.97;5238335;28;20447;-73
2021/12/01 09:54:23;;;;;;;7.47;2.05;;;;;;;9.60;100.00;99093.78;5236558;28;20035;-73
2021/12/01 09:56:54;;;;;;;4.85;1.90;;;;;;;9.71;100.00;99100.47;5236204;28;20495;-73
2021/12/01 09:59:25;;;;;;;7.82;1.83;;;;;;;9.66;100.00;99102.75;5236089;28;20029;-73
2021/12/01 10:01:57;;;;;;;7.25;2.17;;;;;;;9.66;100.00;99100.97;5238571;28;20032;-72
2021/12/01 10:04:29;;;;;;;5.15;2.20;;;;;;;9.66;100.00;99103.59;5238929;28;20108;-73
2021/12/01 10:07:21;;;;;;;6.18;1.95;;;;;;;9.74;100.00;99097.53;5234451;28;20021;-73
2021/12/01 10:09:59;;;;;;;6.57;1.85;;;;;;;9.58;100.00;99085.28;5236278;28;20082;-73
2021/12/01 10:12:44;;;;;;;7.63;2.03;;;;;;;9.70;100.00;99096.22;5239399;28;20021;-73
2021/12/01 10:15:31;;;;;;;6.82;1.65;;;;;;;9.72;100.00;99091.63;5239448;28;20040;-73
2021/12/01 10:18:13;;;;;;;8.48;1.85;;;;;;;9.77;100.00;99094.56;5235984;28;20592;-73
2021/12/01 10:21:12;;;;;;;10.13;1.98;;;;;;;9.82;100.00;99097.50;5241635;28;20032;-73
2021/12/01 10:23:53;;;;;;;8.45;2.08;;;;;;;9.68;100.00;99090.34;5239467;28;20486;-73
2021/12/01 10:26:42;;;;;;;9.88;1.90;;;;;;;9.69;100.00;99095.38;5240625;28;20033;-73
2021/12/01 10:29:28;;;;;;;8.82;1.48;;;;;;;9.56;100.00;99089.06;5239074;28;20155;-73
2021/12/01 10:32:15;;;;;;;8.10;1.67;;;;;;;9.69;100.00;99094.56;5235685;28;20392;-73
2021/12/01 10:34:52;;;;;;;8.65;1.83;;;;;;;9.64;100.00;99104.72;5237010;28;20479;-73
2021/12/01 10:37:30;;;;;;;9.23;1.75;;;;;;;9.71;100.00;99103.91;5235872;28;20021;-73
2021/12/01 10:40:09;;;;;;;6.43;1.65;;;;;;;9.69;100.00;99091.97;5234046;28;20550;-73
2021/12/01 10:43:08;;;;;;;6.38;1.25;;;;;;;9.80;100.00;99101.25;5236505;28;20030;-73
2021/12/01 10:45:46;;;;;;;7.15;1.20;;;;;;;9.81;100.00;99085.41;5253023;28;20120;-73
2021/12/01 10:48:26;;;;;;;8.00;1.80;;;;;;;9.82;100.00;99084.41;5252503;28;20464;-72
2021/12/01 10:50:58;;;;;;;7.82;1.40;;;;;;;9.71;100.00;99084.78;5248797;28;20433;-73
2021/12/01 10:53:30;;;;;;;5.25;1.50;;;;;;;9.69;100.00;99084.13;5250392;28;20032;-73
2021/12/01 10:56:04;;;;;;;4.28;0.80;;;;;;;9.77;100.00;99081.47;5251581;28;20021;-73
2021/12/01 10:58:41;;;;;;;3.70;1.30;;;;;;;9.82;100.00;99078.38;5251768;28;20024;-73
2021/12/01 11:01:24;;;;;;;5.47;1.27;;;;;;;9.92;100.00;99084.22;5251715;28;20492;-73
2021/12/01 11:03:56;;;;;;;6.20;1.15;;;;;;;9.81;100.00;99069.72;5232888;28;20063;-72
2021/12/01 11:06:33;;;;;;;6.78;1.27;;;;;;;9.87;100.00;99082.09;5250896;28;20462;-73
2021/12/01 11:09:04;;;;;;;6.63;1.20;;;;;;;9.80;100.00;99096.84;5250791;28;20108;-73
2021/12/01 11:11:42;;;;;;;5.60;1.05;;;;;;;9.79;100.00;99099.63;5251027;28;20013;-73
2021/12/01 11:14:16;;;;;;;7.65;1.20;;;;;;;9.77;100.00;99096.34;5247892;28;20469;-73
2021/12/01 11:16:47;;;;;;;6.53;1.48;;;;;;;9.67;100.00;99110.44;5248712;28;20394;-73
2021/12/01 11:19:32;;;;;;;6.75;1.40;;;;;;;9.79;100.00;99105.69;5251444;28;20029;-73
2021/12/01 11:22:30;;;;;;;7.82;1.27;;;;;;;9.81;100.00;99102.88;5250045;28;20024;-73
2021/12/01 11:25:25;;;;;;;3.53;1.05;;;;;;;9.81;100.00;99105.50;5250973;28;20028;-73
2021/12/01 11:27:56;;;;;;;5.70;1.10;;;;;;;9.56;100.00;99102.13;5254768;28;20123;-73
2021/12/01 11:30:27;;;;;;;6.72;1.88;;;;;;;9.56;100.00;99107.38;5255187;28;20016;-73
2021/12/01 11:32:59;;;;;;;6.45;1.38;;;;;;;9.54;100.00;99106.69;5253633;28;20082;-73
2021/12/01 11:35:30;;;;;;;5.13;1.15;;;;;;;9.55;100.00;99106.56;5254351;28;20032;-73
2021/12/01 11:38:02;;;;;;;5.32;1.42;;;;;;;9.53;100.00;99107.69;5254043;28;20021;-73
2021/12/01 11:40:33;;;;;;;4.03;1.08;;;;;;;9.49;100.00;99086.28;5251919;28;20457;-73
2021/12/01 11:43:08;;;;;;;8.82;1.35;;;;;;;9.60;100.00;99088.56;5247801;28;20139;-73
2021/12/01 11:45:42;;;;;;;6.05;1.48;;;;;;;9.61;100.00;99081.53;5253620;28;20127;-73
2021/12/01 11:48:17;;;;;;;5.75;1.30;;;;;;;9.60;100.00;99082.53;5251252;28;20533;-72
2021/12/01 11:51:16;;;;;;;5.18;1.30;;;;;;;9.84;100.00;99085.06;5251860;28;20039;-73
2021/12/01 11:54:05;;;;;;;5.78;1.27;;;;;;;9.78;100.00;99095.41;5253955;28;20440;-73
2021/12/01 11:56:38;;;;;;;6.78;1.40;;;;;;;9.74;100.00;99084.44;5249493;28;20120;-73
2021/12/01 11:59:22;;;;;;;5.18;1.40;;;;;;;9.88;100.00;99083.72;5234252;28;20037;-73
2021/12/01 12:02:03;;;;;;;;;;;;;;;10.18;100.00;99086.56;5250282;28;20113;-73
2021/12/01 12:04:37;;;;;;;8.73;1.27;;;;;;;9.79;100.00;99095.22;5250914;28;20286;-72
2021/12/01 12:07:19;;;;;;;4.97;1.42;;;;;;;9.74;100.00;99094.91;5252517;28;20082;-73